createdAt,value
2022-12-24T00:03:44.805Z,99712.13
2022-12-24T00:08:47.652Z,99710.31
2022-12-24T00:13:50.919Z,99693.91
2022-12-24T00:18:55.240Z,99717.03
2022-12-24T00:23:58.093Z,99725.53
2022-12-24T00:29:01.338Z,99736.00
2022-12-24T00:34:06.137Z,99742.66
2022-12-24T00:39:09.196Z,99752.41
2022-12-24T00:44:12.610Z,99780.47
2022-12-24T00:49:16.861Z,99777.78
2022-12-24T00:54:19.713Z,99803.66
2022-12-24T00:59:22.592Z,99824.53
2022-12-24T01:04:44.035Z,99832.47
2022-12-24T01:09:46.935Z,99846.09
2022-12-24T01:14:49.778Z,99859.34
2022-12-24T01:19:54.079Z,99882.47
2022-12-24T01:24:56.912Z,99901.19
2022-12-24T01:29:59.844Z,99895.81
2022-12-24T01:35:04.305Z,99924.28
2022-12-24T01:40:26.162Z,99943.38
2022-12-24T01:45:44.273Z,99951.94
2022-12-24T01:50:49.671Z,99956.13
2022-12-24T01:55:53.277Z,99961.50
2022-12-24T02:00:56.250Z,99976.59
2022-12-24T02:06:01.411Z,99982.06
2022-12-24T02:11:04.330Z,100000.50
2022-12-24T02:16:13.191Z,100007.91
2022-12-24T02:21:43.371Z,100028.06
2022-12-24T02:27:02.240Z,100036.91
2022-12-24T02:32:11.758Z,100040.66
2022-12-24T02:37:18.011Z,100052.06
2022-12-24T02:42:24.253Z,100073.69
2022-12-24T02:47:31.001Z,100080.03
2022-12-24T02:52:37.834Z,100090.81
2022-12-24T02:57:51.995Z,100078.81
2022-12-24T03:03:09.011Z,100097.72
2022-12-24T03:08:15.713Z,100119.56
2022-12-24T03:13:19.891Z,100118.75
2022-12-24T03:18:26.122Z,100116.06
2022-12-24T03:23:29.069Z,100108.22
2022-12-24T03:28:32.233Z,100115.34
2022-12-24T03:33:37.043Z,100118.88
2022-12-24T03:38:39.963Z,100131.88
2022-12-24T03:43:42.819Z,100129.19
2022-12-24T03:48:47.007Z,100138.53
2022-12-24T03:53:50.497Z,100135.72
2022-12-24T03:58:53.522Z,100139.72
2022-12-24T04:03:57.773Z,100144.66
2022-12-24T04:09:04.926Z,100144.56
2022-12-24T04:14:07.830Z,100153.00
2022-12-24T04:19:12.172Z,100146.69
2022-12-24T04:24:15.072Z,100143.34
2022-12-24T04:29:17.875Z,100151.16
2022-12-24T04:34:22.122Z,100151.94
2022-12-24T04:39:26.067Z,100149.13
2022-12-24T04:44:28.930Z,100153.34
2022-12-24T04:49:33.125Z,100160.16
2022-12-24T04:54:36.430Z,100163.38
2022-12-24T04:59:39.383Z,100164.94
2022-12-24T05:04:43.679Z,100183.91
2022-12-24T05:09:47.023Z,100177.75
2022-12-24T05:14:50.029Z,100173.41
2022-12-24T05:19:54.204Z,100183.91
2022-12-24T05:25:14.567Z,100188.09
2022-12-24T05:30:17.493Z,100185.72
2022-12-24T05:35:21.753Z,100193.53
2022-12-24T05:40:24.629Z,100187.31
2022-12-24T05:45:27.500Z,100193.13
2022-12-24T05:50:31.653Z,100191.66
2022-12-24T05:55:41.288Z,100193.53
2022-12-24T06:00:44.176Z,100200.47
2022-12-24T06:05:48.377Z,100209.34
2022-12-24T06:10:56.173Z,100202.53
2022-12-24T06:15:59.771Z,100226.59
2022-12-24T06:21:04.626Z,100233.47
2022-12-24T06:26:09.092Z,100250.03
2022-12-24T06:31:14.467Z,100254.41
2022-12-24T06:36:20.756Z,100266.66
2022-12-24T06:41:24.392Z,100260.41
2022-12-24T06:46:27.751Z,100266.75
2022-12-24T06:51:32.152Z,100272.56
2022-12-24T06:56:35.403Z,100269.94
2022-12-24T07:01:38.380Z,100270.00
2022-12-24T07:06:43.116Z,100284.94
2022-12-24T07:11:46.137Z,100277.31
2022-12-24T07:16:55.234Z,100308.34
2022-12-24T07:22:02.939Z,100318.13
2022-12-24T07:27:05.795Z,100325.78
2022-12-24T07:32:09.033Z,100335.22
2022-12-24T07:37:13.936Z,100340.28
2022-12-24T07:42:16.907Z,100343.84
2022-12-24T07:47:20.643Z,100366.34
2022-12-24T07:52:25.326Z,100357.72
2022-12-24T07:57:28.206Z,100381.81
2022-12-24T08:02:31.452Z,100400.72
2022-12-24T08:07:36.106Z,100410.25
2022-12-24T08:12:39.370Z,100421.44
2022-12-24T08:17:42.372Z,100434.47
2022-12-24T08:22:46.597Z,100448.44
2022-12-24T08:27:49.463Z,100453.78
2022-12-24T08:32:52.510Z,100466.81
2022-12-24T08:37:56.852Z,100485.63
2022-12-24T08:42:59.915Z,100484.03
2022-12-24T08:48:03.054Z,100450.63
2022-12-24T08:53:07.408Z,100499.56
2022-12-24T08:58:10.369Z,100510.63
2022-12-24T09:03:16.979Z,100527.97
2022-12-24T09:08:23.852Z,100532.22
2022-12-24T09:13:26.795Z,100539.22
2022-12-24T09:18:30.238Z,100548.03
2022-12-24T09:23:36.077Z,100559.25
2022-12-24T09:28:40.060Z,100560.97
2022-12-24T09:33:44.597Z,100582.72
2022-12-24T09:38:48.911Z,100593.00
2022-12-24T09:43:56.095Z,100613.16
2022-12-24T09:49:03.696Z,100614.09
2022-12-24T09:54:13.897Z,100631.59
2022-12-24T09:59:18.544Z,100623.81
2022-12-24T10:04:23.015Z,100636.38
2022-12-24T10:09:32.760Z,100647.06
2022-12-24T10:14:48.034Z,100647.59
2022-12-24T10:19:54.066Z,100656.28
2022-12-24T10:25:03.892Z,100666.97
2022-12-24T10:30:17.266Z,100655.56
2022-12-24T10:35:25.147Z,100657.13
2022-12-24T10:40:35.609Z,100645.19
2022-12-24T10:45:41.420Z,100656.25
2022-12-24T10:50:51.099Z,100639.97
2022-12-24T10:56:04.933Z,100679.81
2022-12-24T11:01:07.915Z,100688.34
2022-12-24T11:06:12.904Z,100695.34
2022-12-24T11:11:20.185Z,100718.09
2022-12-24T11:16:27.324Z,100724.81
2022-12-24T11:21:33.236Z,100739.03
2022-12-24T11:26:39.767Z,100733.75
2022-12-24T11:31:43.030Z,100744.94
2022-12-24T11:36:45.913Z,100748.16
2022-12-24T11:41:51.053Z,100753.81
2022-12-24T11:46:56.953Z,100749.53
2022-12-24T11:52:18.765Z,100768.56
2022-12-24T11:57:25.155Z,100763.03
2022-12-24T12:02:30.931Z,100772.63
2022-12-24T12:07:37.031Z,100791.41
2022-12-24T12:12:43.487Z,100794.34
2022-12-24T12:17:50.307Z,100803.25
2022-12-24T12:22:57.620Z,100809.00
2022-12-24T12:28:03.757Z,100801.50
2022-12-24T12:33:15.162Z,100809.44
2022-12-24T12:38:22.273Z,100815.72
2022-12-24T12:43:40.195Z,100822.69
2022-12-24T12:49:06.782Z,100841.75
2022-12-24T12:54:31.319Z,100857.28
2022-12-24T12:59:38.903Z,100871.00
2022-12-24T13:05:17.358Z,100865.44
2022-12-24T13:10:51.320Z,100857.16
2022-12-24T13:16:05.631Z,100872.72
2022-12-24T13:21:16.988Z,100878.97
2022-12-24T13:26:19.916Z,100877.28
2022-12-24T13:31:30.962Z,100885.16
2022-12-24T13:37:03.843Z,100899.09
2022-12-24T13:42:08.109Z,100903.84
2022-12-24T13:47:28.352Z,100910.72
2022-12-24T13:52:40.650Z,100926.72
2022-12-24T13:57:49.149Z,100932.34
2022-12-24T14:02:56.687Z,100935.16
2022-12-24T14:08:00.287Z,100946.59
2022-12-24T14:13:03.332Z,100934.47
2022-12-24T14:18:08.449Z,100932.06
2022-12-24T14:23:21.566Z,100949.50
2022-12-24T14:28:28.279Z,100939.94
2022-12-24T14:33:33.483Z,100936.53
2022-12-24T14:38:36.469Z,100939.13
2022-12-24T14:43:52.526Z,100948.88
2022-12-24T14:48:58.995Z,100942.06
2022-12-24T14:54:15.744Z,100955.25
2022-12-24T14:59:19.966Z,100960.63
2022-12-24T15:04:24.208Z,100964.16
2022-12-24T15:09:29.450Z,100970.28
2022-12-24T15:14:37.080Z,100984.50
2022-12-24T15:19:43.664Z,100983.69
2022-12-24T15:24:47.961Z,100996.00
2022-12-24T15:29:52.726Z,101002.19
2022-12-24T15:34:57.189Z,101001.47
2022-12-24T15:40:08.091Z,100991.97
2022-12-24T15:45:17.152Z,100986.97
2022-12-24T15:50:29.375Z,101010.38
2022-12-24T15:55:34.713Z,101013.00
2022-12-24T16:00:37.635Z,101031.22
2022-12-24T16:05:41.868Z,101045.06
2022-12-24T16:10:46.889Z,101049.50
2022-12-24T16:15:53.337Z,101044.38
2022-12-24T16:20:57.892Z,101041.91
2022-12-24T16:26:00.717Z,101044.56
2022-12-24T16:31:03.842Z,101048.97
2022-12-24T16:36:08.729Z,101029.94
2022-12-24T16:41:11.787Z,101039.47
2022-12-24T16:46:14.934Z,101040.34
2022-12-24T16:51:19.188Z,101044.66
2022-12-24T16:56:22.587Z,101042.13
2022-12-24T17:01:25.814Z,101043.84
2022-12-24T17:06:31.587Z,101050.00
2022-12-24T17:11:34.679Z,101054.25
2022-12-24T17:16:38.010Z,101058.69
2022-12-24T17:21:42.414Z,101051.78
2022-12-24T17:26:45.289Z,101052.66
2022-12-24T17:31:51.438Z,101039.69
2022-12-24T17:36:55.647Z,101039.75
2022-12-24T17:41:58.522Z,101033.72
2022-12-24T17:47:02.000Z,101029.38
2022-12-24T17:52:06.580Z,101028.53
2022-12-24T17:57:09.590Z,101040.63
2022-12-24T18:02:13.205Z,101020.72
2022-12-24T18:07:17.474Z,101053.59
2022-12-24T18:12:20.393Z,101050.09
2022-12-24T18:17:23.246Z,101053.56
2022-12-24T18:22:27.453Z,101051.81
2022-12-24T18:27:30.313Z,101046.59
2022-12-24T18:32:33.208Z,101050.88
2022-12-24T18:37:37.819Z,101050.03
2022-12-24T18:42:41.636Z,101062.16
2022-12-24T18:47:44.510Z,101058.59
2022-12-24T18:52:51.087Z,101053.31
2022-12-24T18:57:54.060Z,101064.75
2022-12-24T19:02:56.981Z,101074.28
2022-12-24T19:08:11.024Z,101069.13
2022-12-24T19:13:24.073Z,101078.63
2022-12-24T19:18:26.979Z,101075.16
2022-12-24T19:23:31.240Z,101080.38
2022-12-24T19:28:34.840Z,101067.38
2022-12-24T19:33:42.349Z,101069.97
2022-12-24T19:38:48.163Z,101073.44
2022-12-24T19:43:53.215Z,101082.97
2022-12-24T19:48:58.367Z,101094.16
2022-12-24T19:54:02.758Z,101085.50
2022-12-24T19:59:06.432Z,101077.72
2022-12-24T20:04:10.480Z,101070.84
2022-12-24T20:09:14.684Z,101066.53
2022-12-24T20:14:17.526Z,101071.69
2022-12-24T20:19:20.468Z,101074.28
2022-12-24T20:24:24.701Z,101055.22
2022-12-24T20:29:27.577Z,101060.31
2022-12-24T20:34:30.422Z,101060.31
2022-12-24T20:39:34.702Z,101067.25
2022-12-24T20:44:37.651Z,101058.59
2022-12-24T20:49:40.600Z,101051.63
2022-12-24T20:54:44.995Z,101036.94
2022-12-24T20:59:47.801Z,101043.84
2022-12-24T21:04:54.134Z,101046.44
2022-12-24T21:10:00.814Z,101039.56
2022-12-24T21:15:03.822Z,101052.50
2022-12-24T21:20:07.875Z,101049.06
2022-12-24T21:25:12.944Z,101028.31
2022-12-24T21:30:16.031Z,101047.31
2022-12-24T21:35:19.190Z,101049.06
2022-12-24T21:40:23.512Z,101054.25
2022-12-24T21:45:26.347Z,101046.50
2022-12-24T21:50:46.877Z,101043.06
2022-12-24T21:55:52.354Z,101031.88
2022-12-24T22:00:55.365Z,101033.59
2022-12-24T22:05:59.643Z,101026.69
2022-12-24T22:11:25.039Z,101028.44
2022-12-24T22:16:28.013Z,101028.41
2022-12-24T22:21:30.858Z,101033.66
2022-12-24T22:26:35.002Z,101038.81
2022-12-24T22:31:38.548Z,101043.13
2022-12-24T22:36:41.491Z,101053.47
2022-12-24T22:41:46.341Z,101040.53
2022-12-24T22:46:49.979Z,101052.66
2022-12-24T22:51:52.854Z,101061.28
2022-12-24T22:56:57.038Z,101063.88
2022-12-24T23:02:00.045Z,101066.47
2022-12-24T23:07:03.040Z,101081.19
2022-12-24T23:12:08.103Z,101063.94
2022-12-24T23:17:11.820Z,101084.66
2022-12-24T23:22:14.636Z,101083.75
2022-12-24T23:27:18.895Z,101082.78
2022-12-24T23:32:23.375Z,101069.81
2022-12-24T23:37:32.941Z,101086.25
2022-12-24T23:42:39.214Z,101088.75
2022-12-24T23:47:41.993Z,101081.78
2022-12-24T23:52:44.781Z,101067.03
2022-12-24T23:57:48.975Z,101072.19
